Swift Arrow — WAFK — position and weather

sailwx.info

Track history (hours):
 
Tides and Currents Weather Stations Pressure Air Temp Water Temp Dewpoint Dewpoint Depression Visibility Wind Speed Wind Dir Waves Ship Positions

Swift Arrow

Owner: ARROW LAUNCH SERVICE INC, Port Angeles, WA. More information available from US FCC via Universal Licensing System and Coast Guard Vessel Documentation Center.

Last reported at 2017-May-26 02:47 UTC. Time now 2017-May-26 13:12 UTC.
Position N 47°15' W 122°26'.

Type: Port tender. MMSI: 369021000.

Date/timePositionNaut miles runAvg speedWind from/ knotsBaromVisibWave heightAir tempDewpointWater temp
2017-May-26 02:47N 47°15' W 122°26'2 5.5
2017-May-26 02:28N 47°17' W 122°25'1 1.8
2017-May-26 01:58N 47°17' W 122°27'1 0.0
2017-May-24 19:49N 47°15' W 122°26'0 0.1
2017-May-24 16:37N 47°16' W 122°26'0 0.2
2017-May-24 15:15N 47°16' W 122°26'1 0.0
2017-May-22 18:44N 47°15' W 122°26'0 0.0
2017-May-21 17:02N 47°15' W 122°26'0 5.4
2017-May-21 17:01N 47°15' W 122°26'1 2.8
2017-May-21 16:30N 47°17' W 122°27'1 0.1
2017-May-21 01:03N 47°15' W 122°26'0 5.6
2017-May-21 01:01N 47°15' W 122°26'1 1.9
2017-May-21 00:30N 47°16' W 122°27'0 0.1
2017-May-20 23:57N 47°16' W 122°27'0 0.1
2017-May-20 23:30N 47°16' W 122°27'1 1.6
2017-May-20 22:42N 47°15' W 122°26'1 6.2
2017-May-20 22:30N 47°16' W 122°25'1 2.1
2017-May-20 22:00N 47°16' W 122°27'1 0.6
2017-May-20 19:45N 47°15' W 122°26'2 4.8
2017-May-20 19:22N 47°17' W 122°25'0 0.9
2017-May-20 19:00N 47°17' W 122°26'2 1.0
2017-May-20 17:20N 47°15' W 122°26'2 3.2
2017-May-20 16:37N 47°17' W 122°25'0 0.1
2017-May-20 16:29N 47°17' W 122°25'2 3.4
2017-May-20 15:56N 47°16' W 122°26'0 0.0
2017-May-20 01:05N 47°15' W 122°26'0 5.0
2017-May-20 01:00N 47°16' W 122°26'2 3.5
2017-May-20 00:28N 47°17' W 122°25'2 1.0
2017-May-19 22:10N 47°15' W 122°26'1 5.0
2017-May-19 22:00N 47°16' W 122°26'1 2.0
2017-May-19 21:30N 47°16' W 122°25'1 0.8
2017-May-19 20:11N 47°15' W 122°26'1 4.8
2017-May-19 20:00N 47°16' W 122°26'1 0.0
2017-May-17 21:44N 47°15' W 122°26'1 5.9
2017-May-17 21:30N 47°16' W 122°27'4 7.2
2017-May-17 20:58N 47°20' W 122°28'4 6.2
2017-May-17 20:20N 47°17' W 122°25'1 0.1
2017-May-17 09:30N 47°15' W 122°26'1 2.4
2017-May-17 09:00N 47°17' W 122°27'  
Track history (hours):
 
Tides and Currents Weather Stations Pressure Air Temp Water Temp Dewpoint Dewpoint Depression Visibility Wind Speed Wind Dir Waves Ship Positions

Swift Arrow

Owner: ARROW LAUNCH SERVICE INC, Port Angeles, WA. More information available from US FCC via Universal Licensing System and Coast Guard Vessel Documentation Center.

Last reported at 2017-May-26 02:47 UTC. Time now 2017-May-26 13:12 UTC.
Position N 47°15' W 122°26'.

Type: Port tender. MMSI: 369021000.

Date/timePositionNaut miles runAvg speedWind from/ knotsBaromVisibWave heightAir tempDewpointWater temp
2017-May-26 02:47N 47°15' W 122°26'2 5.5
2017-May-26 02:28N 47°17' W 122°25'1 1.8
2017-May-26 01:58N 47°17' W 122°27'1 0.0
2017-May-24 19:49N 47°15' W 122°26'0 0.1
2017-May-24 16:37N 47°16' W 122°26'0 0.2
2017-May-24 15:15N 47°16' W 122°26'1 0.0
2017-May-22 18:44N 47°15' W 122°26'0 0.0
2017-May-21 17:02N 47°15' W 122°26'0 5.4
2017-May-21 17:01N 47°15' W 122°26'1 2.8
2017-May-21 16:30N 47°17' W 122°27'1 0.1
2017-May-21 01:03N 47°15' W 122°26'0 5.6
2017-May-21 01:01N 47°15' W 122°26'1 1.9
2017-May-21 00:30N 47°16' W 122°27'0 0.1
2017-May-20 23:57N 47°16' W 122°27'0 0.1
2017-May-20 23:30N 47°16' W 122°27'1 1.6
2017-May-20 22:42N 47°15' W 122°26'1 6.2
2017-May-20 22:30N 47°16' W 122°25'1 2.1
2017-May-20 22:00N 47°16' W 122°27'1 0.6
2017-May-20 19:45N 47°15' W 122°26'2 4.8
2017-May-20 19:22N 47°17' W 122°25'0 0.9
2017-May-20 19:00N 47°17' W 122°26'2 1.0
2017-May-20 17:20N 47°15' W 122°26'2 3.2
2017-May-20 16:37N 47°17' W 122°25'0 0.1
2017-May-20 16:29N 47°17' W 122°25'2 3.4
2017-May-20 15:56N 47°16' W 122°26'0 0.0
2017-May-20 01:05N 47°15' W 122°26'0 5.0
2017-May-20 01:00N 47°16' W 122°26'2 3.5
2017-May-20 00:28N 47°17' W 122°25'2 1.0
2017-May-19 22:10N 47°15' W 122°26'1 5.0
2017-May-19 22:00N 47°16' W 122°26'1 2.0
2017-May-19 21:30N 47°16' W 122°25'1 0.8
2017-May-19 20:11N 47°15' W 122°26'1 4.8
2017-May-19 20:00N 47°16' W 122°26'1 0.0
2017-May-17 21:44N 47°15' W 122°26'1 5.9
2017-May-17 21:30N 47°16' W 122°27'4 7.2
2017-May-17 20:58N 47°20' W 122°28'4 6.2
2017-May-17 20:20N 47°17' W 122°25'1 0.1
2017-May-17 09:30N 47°15' W 122°26'1 2.4
2017-May-17 09:00N 47°17' W 122°27'  

Dump ship's entire track history